createdAt,value
2023-04-26T00:02:27.532Z,2.37
2023-04-26T00:04:58.866Z,3.37
2023-04-26T00:07:28.540Z,2.33
2023-04-26T00:09:56.762Z,2.60
2023-04-26T00:12:24.911Z,2.40
2023-04-26T00:14:53.086Z,2.67
2023-04-26T00:17:21.206Z,2.50
2023-04-26T00:19:51.053Z,2.47
2023-04-26T00:22:19.158Z,2.67
2023-04-26T00:24:47.380Z,3.40
2023-04-26T00:27:15.710Z,2.63
2023-04-26T00:29:43.863Z,2.97
2023-04-26T00:32:12.157Z,2.60
2023-04-26T00:34:40.497Z,3.27
2023-04-26T00:37:09.992Z,3.10
2023-04-26T00:39:38.137Z,3.23
2023-04-26T00:42:06.511Z,3.77
2023-04-26T00:44:34.649Z,3.43
2023-04-26T00:47:03.246Z,3.03
2023-04-26T00:49:31.539Z,3.40
2023-04-26T00:51:59.890Z,3.43
2023-04-26T00:54:30.674Z,3.47
2023-04-26T00:56:59.466Z,3.33
2023-04-26T00:59:28.177Z,3.77
2023-04-26T01:01:56.505Z,3.80
2023-04-26T01:04:27.245Z,3.80
2023-04-26T01:06:55.989Z,3.63
2023-04-26T01:09:24.149Z,4.23
2023-04-26T01:11:56.646Z,3.73
2023-04-26T01:14:24.966Z,4.17
2023-04-26T01:16:53.260Z,3.50
2023-04-26T01:19:22.106Z,3.60
2023-04-26T01:21:50.474Z,3.63
2023-04-26T01:24:20.001Z,3.70
2023-04-26T01:26:49.150Z,3.73
2023-04-26T01:29:17.949Z,3.40
2023-04-26T01:31:46.590Z,4.07
2023-04-26T01:34:14.769Z,3.70
2023-04-26T01:36:43.449Z,4.00
2023-04-26T01:39:11.699Z,3.80
2023-04-26T01:41:41.287Z,4.47
2023-04-26T01:44:09.542Z,4.60
2023-04-26T01:46:37.716Z,4.53
2023-04-26T01:49:05.978Z,4.90
2023-04-26T01:51:34.781Z,5.00
2023-04-26T01:54:02.935Z,4.83
2023-04-26T01:56:31.376Z,4.67
2023-04-26T01:59:00.909Z,5.20
2023-04-26T02:01:29.140Z,5.17
2023-04-26T02:03:57.325Z,5.20
2023-04-26T02:06:26.440Z,5.50
2023-04-26T02:08:55.178Z,5.40
2023-04-26T02:11:24.588Z,5.43
2023-04-26T02:13:52.861Z,5.73
2023-04-26T02:16:22.703Z,6.00
2023-04-26T02:18:51.102Z,6.10
2023-04-26T02:21:19.539Z,5.90
2023-04-26T02:23:47.753Z,6.10
2023-04-26T02:26:16.249Z,6.13
2023-04-26T02:28:44.412Z,6.40
2023-04-26T02:31:12.572Z,6.33
2023-04-26T02:33:42.110Z,6.27
2023-04-26T02:36:10.389Z,6.30
2023-04-26T02:38:38.624Z,6.90
2023-04-26T02:41:06.942Z,6.73
2023-04-26T02:43:35.211Z,6.20
2023-04-26T02:46:03.328Z,6.30
2023-04-26T02:48:31.481Z,7.97
2023-04-26T02:51:01.108Z,6.40
2023-04-26T02:53:29.298Z,6.53
2023-04-26T02:55:57.442Z,6.37
2023-04-26T02:58:25.554Z,7.47
2023-04-26T03:00:54.715Z,6.47
2023-04-26T03:03:23.270Z,6.60
2023-04-26T03:05:51.629Z,6.20
2023-04-26T03:08:21.155Z,6.73
2023-04-26T03:10:49.322Z,6.37
2023-04-26T03:13:17.470Z,6.93
2023-04-26T03:15:46.907Z,6.60
2023-04-26T03:18:15.132Z,6.30
2023-04-26T03:20:43.579Z,6.87
2023-04-26T03:23:11.719Z,6.80
2023-04-26T03:25:41.266Z,6.40
2023-04-26T03:28:09.421Z,6.93
2023-04-26T03:30:37.599Z,6.30
2023-04-26T03:33:05.791Z,6.03
2023-04-26T03:35:34.000Z,6.43
2023-04-26T03:38:02.318Z,6.20
2023-04-26T03:40:30.494Z,6.33
2023-04-26T03:43:00.022Z,6.47
2023-04-26T03:45:28.249Z,6.60
2023-04-26T03:47:56.895Z,6.53
2023-04-26T03:50:25.118Z,7.03
2023-04-26T03:52:53.260Z,5.93
2023-04-26T03:55:21.436Z,6.70
2023-04-26T03:57:49.654Z,6.77
2023-04-26T04:00:19.328Z,7.23
2023-04-26T04:02:48.044Z,7.00
2023-04-26T04:05:16.561Z,6.30
2023-04-26T04:07:44.976Z,6.83
2023-04-26T04:10:13.280Z,6.73
2023-04-26T04:12:41.445Z,6.87
2023-04-26T04:15:10.278Z,6.37
2023-04-26T04:17:39.814Z,6.20
2023-04-26T04:20:08.728Z,5.60
2023-04-26T04:22:39.475Z,7.63
2023-04-26T04:25:09.152Z,6.70
2023-04-26T04:27:38.153Z,7.27
2023-04-26T04:30:07.533Z,6.27
2023-04-26T04:32:35.738Z,5.60
2023-04-26T04:35:05.637Z,6.73
2023-04-26T04:37:34.882Z,6.40
2023-04-26T04:40:04.436Z,5.93
2023-04-26T04:42:32.739Z,6.00
2023-04-26T04:45:01.024Z,5.93
2023-04-26T04:47:29.251Z,6.00
2023-04-26T04:49:57.597Z,5.80
2023-04-26T04:52:27.089Z,5.90
2023-04-26T04:54:55.991Z,5.70
2023-04-26T04:57:24.171Z,5.53
2023-04-26T04:59:52.474Z,5.30
2023-04-26T05:02:20.754Z,5.23
2023-04-26T05:04:49.271Z,6.13
2023-04-26T05:07:18.489Z,5.23
2023-04-26T05:09:48.070Z,5.83
2023-04-26T05:12:16.200Z,5.53
2023-04-26T05:14:44.355Z,6.33
2023-04-26T05:17:12.553Z,5.77
2023-04-26T05:19:40.747Z,5.70
2023-04-26T05:22:08.962Z,6.33
2023-04-26T05:24:37.183Z,5.77
2023-04-26T05:27:06.738Z,5.60
2023-04-26T05:29:34.919Z,5.57
2023-04-26T05:32:03.930Z,5.87
2023-04-26T05:34:32.148Z,6.30
2023-04-26T05:37:00.517Z,6.13
2023-04-26T05:39:28.681Z,5.93
2023-04-26T05:41:56.789Z,6.67
2023-04-26T05:44:26.333Z,5.70
2023-04-26T05:46:54.548Z,5.40
2023-04-26T05:49:22.833Z,5.50
2023-04-26T05:51:50.937Z,5.17
2023-04-26T05:54:19.203Z,4.23
2023-04-26T05:56:47.397Z,4.00
2023-04-26T05:59:15.688Z,3.77
2023-04-26T06:01:45.212Z,3.77
2023-04-26T06:04:13.590Z,3.43
2023-04-26T06:06:42.216Z,3.37
2023-04-26T06:09:10.512Z,2.80
2023-04-26T06:11:38.643Z,2.77
2023-04-26T06:14:07.831Z,2.40
2023-04-26T06:16:41.746Z,2.33
2023-04-26T06:19:13.118Z,2.33
2023-04-26T06:21:41.377Z,2.10
2023-04-26T06:24:09.582Z,2.00
2023-04-26T06:26:37.777Z,1.80
2023-04-26T06:29:05.928Z,1.57
2023-04-26T06:31:34.203Z,1.50
2023-04-26T06:34:03.142Z,1.80
2023-04-26T06:36:32.804Z,1.43
2023-04-26T06:39:00.921Z,1.50
2023-04-26T06:41:29.042Z,1.60
2023-04-26T06:43:57.281Z,1.67
2023-04-26T06:46:25.489Z,1.40
2023-04-26T06:48:55.048Z,1.20
2023-04-26T06:51:23.203Z,1.40
2023-04-26T06:53:53.346Z,1.60
2023-04-26T06:56:21.795Z,1.20
2023-04-26T06:59:00.379Z,1.60
2023-04-26T07:01:29.408Z,1.20
2023-04-26T07:03:58.450Z,1.50
2023-04-26T07:06:27.943Z,1.60
2023-04-26T07:08:58.879Z,1.40
2023-04-26T07:11:27.745Z,1.03
2023-04-26T07:13:55.921Z,1.10
2023-04-26T07:16:24.216Z,1.30
2023-04-26T07:18:52.891Z,1.60
2023-04-26T07:21:21.089Z,1.63
2023-04-26T07:23:49.274Z,1.30
2023-04-26T07:26:18.766Z,1.10
2023-04-26T07:28:46.947Z,1.90
2023-04-26T07:31:15.096Z,1.30
2023-04-26T07:33:43.708Z,1.30
2023-04-26T07:36:11.986Z,1.33
2023-04-26T07:38:40.440Z,1.30
2023-04-26T07:41:08.569Z,2.17
2023-04-26T07:43:38.130Z,1.57
2023-04-26T07:46:06.381Z,1.53
2023-04-26T07:48:34.593Z,1.83
2023-04-26T07:51:08.880Z,1.67
2023-04-26T07:53:37.139Z,1.80
2023-04-26T07:56:05.860Z,1.90
2023-04-26T07:58:34.010Z,1.90
2023-04-26T08:01:04.031Z,1.60
2023-04-26T08:03:32.425Z,1.77
2023-04-26T08:06:00.938Z,1.70
2023-04-26T08:08:29.635Z,1.60
2023-04-26T08:10:57.827Z,1.43
2023-04-26T08:13:28.612Z,1.20
2023-04-26T08:15:57.594Z,1.20
2023-04-26T08:18:27.105Z,1.40
2023-04-26T08:20:55.500Z,1.30
2023-04-26T08:23:23.881Z,1.33
2023-04-26T08:25:52.059Z,1.40
2023-04-26T08:28:20.348Z,1.33
2023-04-26T08:30:48.545Z,1.43
2023-04-26T08:33:17.392Z,1.60
2023-04-26T08:35:47.360Z,1.37
2023-04-26T08:38:15.489Z,1.37
2023-04-26T08:40:44.729Z,1.93
2023-04-26T08:43:12.871Z,1.80
2023-04-26T08:45:42.426Z,1.60
2023-04-26T08:48:14.962Z,1.60
2023-04-26T08:50:45.300Z,1.90
2023-04-26T08:53:17.973Z,1.60
2023-04-26T08:55:49.468Z,1.53
2023-04-26T08:58:18.864Z,2.00
2023-04-26T09:00:47.185Z,1.30
2023-04-26T09:03:15.935Z,1.63
2023-04-26T09:05:45.252Z,1.80
2023-04-26T09:08:16.114Z,1.60
2023-04-26T09:10:45.747Z,1.47
2023-04-26T09:13:14.360Z,1.70
2023-04-26T09:15:42.743Z,1.63
2023-04-26T09:18:21.326Z,1.63
2023-04-26T09:21:03.265Z,1.47
2023-04-26T09:23:31.661Z,1.80
2023-04-26T09:26:14.885Z,1.50
2023-04-26T09:28:46.360Z,1.50
2023-04-26T09:31:15.635Z,1.50
2023-04-26T09:33:58.660Z,1.23
2023-04-26T09:36:27.494Z,1.60
2023-04-26T09:38:56.563Z,1.50
2023-04-26T09:41:24.787Z,1.77
2023-04-26T09:43:54.375Z,1.30
2023-04-26T09:46:25.160Z,1.50
2023-04-26T09:49:03.441Z,1.53
2023-04-26T09:51:32.233Z,1.63
2023-04-26T09:54:01.330Z,1.50
2023-04-26T09:56:29.580Z,1.80
2023-04-26T09:59:00.622Z,1.53
2023-04-26T10:01:30.533Z,1.90
2023-04-26T10:03:59.524Z,1.57
2023-04-26T10:06:29.173Z,1.40
2023-04-26T10:08:57.854Z,1.50
2023-04-26T10:11:26.408Z,1.40
2023-04-26T10:13:54.565Z,1.33
2023-04-26T10:16:24.391Z,1.37
2023-04-26T10:18:52.778Z,1.43
2023-04-26T10:21:23.157Z,1.30
2023-04-26T10:23:51.575Z,1.07
2023-04-26T10:26:38.465Z,1.40
2023-04-26T10:29:06.698Z,1.97
2023-04-26T10:31:53.517Z,1.30
2023-04-26T10:34:23.181Z,1.10
2023-04-26T10:37:10.642Z,1.30
2023-04-26T10:39:39.047Z,1.40
2023-04-26T10:42:24.084Z,1.10
2023-04-26T10:44:52.858Z,1.27
2023-04-26T10:47:25.258Z,1.17
2023-04-26T10:49:54.921Z,1.27
2023-04-26T10:52:23.401Z,1.00
2023-04-26T10:54:55.646Z,1.20
2023-04-26T10:57:24.552Z,1.20
2023-04-26T11:00:14.472Z,1.43
2023-04-26T11:03:03.765Z,1.23
2023-04-26T11:05:37.535Z,1.40
2023-04-26T11:08:06.579Z,1.07
2023-04-26T11:10:36.311Z,1.13
2023-04-26T11:13:05.302Z,1.10
2023-04-26T11:15:33.661Z,1.40
2023-04-26T11:18:04.323Z,1.50
2023-04-26T11:20:33.236Z,1.60
2023-04-26T11:23:03.101Z,1.03
2023-04-26T11:25:31.462Z,1.40
2023-04-26T11:28:01.220Z,1.10
2023-04-26T11:30:32.925Z,1.50
2023-04-26T11:33:01.340Z,1.33
2023-04-26T11:35:30.802Z,1.60
2023-04-26T11:38:05.299Z,1.40
2023-04-26T11:40:33.897Z,1.50
2023-04-26T11:43:03.349Z,1.40
2023-04-26T11:45:33.062Z,1.50
2023-04-26T11:48:02.889Z,1.30
2023-04-26T11:50:32.074Z,1.60
2023-04-26T11:53:01.701Z,1.53
2023-04-26T11:55:32.173Z,1.20
2023-04-26T11:58:00.616Z,1.20
2023-04-26T12:00:29.236Z,1.37
2023-04-26T12:02:58.390Z,1.60
2023-04-26T12:05:27.603Z,1.63
2023-04-26T12:07:56.893Z,1.60
2023-04-26T12:10:27.763Z,1.70
2023-04-26T12:12:57.865Z,1.20
2023-04-26T12:15:26.713Z,1.47
2023-04-26T12:17:55.747Z,1.60
2023-04-26T12:20:31.115Z,1.50
2023-04-26T12:23:02.906Z,1.47
2023-04-26T12:25:31.573Z,1.50
2023-04-26T12:28:01.845Z,1.23
2023-04-26T12:30:31.231Z,1.40
2023-04-26T12:33:09.183Z,1.70
2023-04-26T12:35:44.594Z,1.40
2023-04-26T12:38:13.275Z,1.47
2023-04-26T12:40:42.541Z,1.33
2023-04-26T12:43:12.227Z,1.10
2023-04-26T12:45:40.433Z,1.47
2023-04-26T12:48:08.890Z,1.27
2023-04-26T12:50:37.127Z,1.60
2023-04-26T12:53:05.333Z,1.33
2023-04-26T12:55:33.464Z,1.30
2023-04-26T12:58:01.691Z,1.20
2023-04-26T13:00:31.248Z,2.10
2023-04-26T13:02:59.618Z,1.07
2023-04-26T13:05:29.567Z,1.27
2023-04-26T13:07:57.803Z,1.10
2023-04-26T13:10:44.928Z,1.37
2023-04-26T13:13:13.133Z,1.40
2023-04-26T13:15:42.862Z,1.10
2023-04-26T13:18:11.233Z,1.40
2023-04-26T13:20:39.485Z,1.23
2023-04-26T13:23:07.697Z,1.30
2023-04-26T13:25:35.899Z,1.20
2023-04-26T13:28:04.094Z,1.10
2023-04-26T13:30:32.371Z,1.23
2023-04-26T13:33:02.167Z,1.20
2023-04-26T13:35:30.432Z,1.10
2023-04-26T13:37:58.623Z,1.23
2023-04-26T13:40:26.864Z,1.20
2023-04-26T13:42:55.057Z,1.73
2023-04-26T13:45:23.264Z,1.20
2023-04-26T13:47:51.458Z,1.30
2023-04-26T13:50:21.328Z,1.57
2023-04-26T13:52:50.891Z,1.50
2023-04-26T13:55:19.121Z,1.40
2023-04-26T13:57:47.342Z,1.13
2023-04-26T14:00:16.172Z,1.30
2023-04-26T14:02:44.504Z,1.63
2023-04-26T14:05:13.188Z,1.20
2023-04-26T14:07:43.175Z,1.20
2023-04-26T14:10:12.124Z,1.30
2023-04-26T14:12:41.197Z,1.37
2023-04-26T14:15:09.882Z,1.40
2023-04-26T14:17:38.069Z,1.30
2023-04-26T14:20:06.732Z,1.40
2023-04-26T14:22:35.724Z,1.57
2023-04-26T14:25:05.370Z,1.33
2023-04-26T14:27:33.533Z,1.47
2023-04-26T14:30:01.769Z,1.50
2023-04-26T14:32:29.954Z,1.10
2023-04-26T14:34:58.157Z,1.40
2023-04-26T14:37:26.407Z,1.10
2023-04-26T14:39:54.615Z,1.43
2023-04-26T14:42:24.108Z,1.30
2023-04-26T14:44:52.209Z,1.20
2023-04-26T14:47:20.421Z,1.43
2023-04-26T14:49:48.588Z,1.20
2023-04-26T14:52:17.208Z,1.43
2023-04-26T14:54:45.761Z,1.23
2023-04-26T14:57:13.941Z,1.23
2023-04-26T14:59:43.502Z,1.30
2023-04-26T15:02:11.662Z,1.40
2023-04-26T15:04:40.121Z,1.23
2023-04-26T15:07:15.276Z,1.63
2023-04-26T15:09:49.193Z,1.40
2023-04-26T15:12:17.356Z,1.60
2023-04-26T15:14:46.854Z,1.40
2023-04-26T15:17:15.067Z,1.10
2023-04-26T15:19:43.260Z,1.53
2023-04-26T15:22:11.854Z,1.30
2023-04-26T15:24:40.217Z,1.67
2023-04-26T15:27:08.425Z,1.37
2023-04-26T15:29:37.231Z,1.57
2023-04-26T15:32:06.868Z,1.70
2023-04-26T15:34:40.481Z,1.50
2023-04-26T15:37:08.616Z,1.60
2023-04-26T15:39:36.840Z,1.53
2023-04-26T15:42:05.496Z,1.33
2023-04-26T15:44:33.805Z,1.70
2023-04-26T15:47:02.512Z,1.50
2023-04-26T15:49:32.120Z,1.40
2023-04-26T15:52:00.440Z,1.33
2023-04-26T15:54:28.704Z,1.70
2023-04-26T15:56:56.945Z,1.67
2023-04-26T15:59:25.089Z,1.57
2023-04-26T16:01:53.377Z,1.30
2023-04-26T16:04:21.747Z,1.43
2023-04-26T16:06:51.517Z,1.60
2023-04-26T16:09:25.179Z,1.47
2023-04-26T16:11:54.105Z,1.50
2023-04-26T16:14:22.412Z,1.43
2023-04-26T16:16:50.602Z,1.40
2023-04-26T16:19:18.766Z,1.70
2023-04-26T16:21:46.987Z,1.37
2023-04-26T16:24:16.567Z,1.60
2023-04-26T16:26:44.781Z,1.50
2023-04-26T16:29:13.220Z,1.30
2023-04-26T16:31:41.522Z,1.30
2023-04-26T16:34:09.744Z,1.43
2023-04-26T16:36:37.944Z,1.60
2023-04-26T16:39:06.097Z,1.50
2023-04-26T16:41:35.685Z,1.47
2023-04-26T16:44:03.849Z,2.00
2023-04-26T16:46:32.343Z,1.47
2023-04-26T16:49:00.613Z,1.80
2023-04-26T16:51:28.780Z,1.60
2023-04-26T16:53:56.968Z,1.93
2023-04-26T16:56:25.325Z,1.80
2023-04-26T16:58:54.806Z,1.50
2023-04-26T17:01:22.976Z,1.70
2023-04-26T17:03:51.993Z,1.57
2023-04-26T17:06:20.417Z,1.70
2023-04-26T17:08:48.686Z,1.60
2023-04-26T17:11:17.089Z,1.40
2023-04-26T17:13:45.557Z,1.60
2023-04-26T17:16:15.039Z,1.60
2023-04-26T17:18:43.529Z,1.70
2023-04-26T17:21:11.706Z,2.00
2023-04-26T17:23:39.897Z,2.00
2023-04-26T17:26:08.105Z,1.30
2023-04-26T17:28:38.813Z,1.77
2023-04-26T17:31:06.973Z,1.90
2023-04-26T17:33:36.847Z,1.53
2023-04-26T17:36:05.183Z,1.90
2023-04-26T17:38:33.377Z,1.77
2023-04-26T17:41:01.517Z,1.90
2023-04-26T17:43:29.735Z,1.80
2023-04-26T17:45:57.985Z,1.67
2023-04-26T17:48:26.443Z,1.63
2023-04-26T17:50:55.993Z,1.53
2023-04-26T17:53:24.291Z,1.50
2023-04-26T17:55:53.345Z,1.37
2023-04-26T17:58:21.506Z,1.93
2023-04-26T18:00:50.180Z,1.80
2023-04-26T18:03:20.166Z,1.80
2023-04-26T18:05:48.707Z,2.20
2023-04-26T18:08:18.149Z,2.47
2023-04-26T18:10:48.419Z,1.73
2023-04-26T18:13:16.984Z,2.60
2023-04-26T18:15:45.279Z,2.73
2023-04-26T18:18:13.499Z,2.57
2023-04-26T18:20:41.789Z,1.70
2023-04-26T18:23:09.963Z,1.90
2023-04-26T18:25:39.415Z,1.60
2023-04-26T18:28:08.619Z,1.70
2023-04-26T18:30:36.766Z,1.50
2023-04-26T18:33:05.096Z,1.97
2023-04-26T18:35:33.332Z,1.80
2023-04-26T18:38:01.489Z,2.03
2023-04-26T18:40:29.764Z,2.00
2023-04-26T18:42:59.780Z,1.90
2023-04-26T18:45:27.992Z,2.10
2023-04-26T18:47:56.277Z,2.07
2023-04-26T18:50:24.515Z,1.80
2023-04-26T18:52:52.682Z,1.80
2023-04-26T18:55:21.120Z,1.90
2023-04-26T18:57:49.357Z,1.93
2023-04-26T19:00:19.224Z,2.03
2023-04-26T19:02:47.831Z,1.77
2023-04-26T19:05:16.514Z,1.80
2023-04-26T19:07:45.640Z,1.53
2023-04-26T19:10:16.130Z,1.70
2023-04-26T19:12:44.285Z,2.00
2023-04-26T19:15:12.939Z,2.23
2023-04-26T19:17:42.665Z,1.70
2023-04-26T19:20:12.927Z,1.97
2023-04-26T19:22:41.823Z,1.73
2023-04-26T19:25:10.456Z,2.30
2023-04-26T19:27:38.622Z,1.60
2023-04-26T19:30:07.534Z,2.10
2023-04-26T19:32:36.457Z,1.57
2023-04-26T19:35:07.326Z,1.70
2023-04-26T19:37:35.567Z,1.77
2023-04-26T19:40:05.851Z,1.90
2023-04-26T19:42:34.033Z,1.87
2023-04-26T19:45:02.367Z,2.03
2023-04-26T19:47:30.578Z,2.37
2023-04-26T19:49:59.469Z,1.83
2023-04-26T19:52:29.044Z,2.00
2023-04-26T19:54:57.340Z,2.17
2023-04-26T19:57:25.555Z,2.40
2023-04-26T19:59:53.694Z,2.03
2023-04-26T20:02:21.887Z,2.10
2023-04-26T20:04:50.054Z,2.33
2023-04-26T20:07:18.189Z,2.10
2023-04-26T20:09:47.698Z,2.43
2023-04-26T20:12:16.063Z,2.40
2023-04-26T20:14:44.207Z,2.53
2023-04-26T20:17:12.359Z,2.57
2023-04-26T20:19:40.986Z,2.40
2023-04-26T20:22:09.135Z,2.27
2023-04-26T20:24:37.316Z,2.83
2023-04-26T20:27:06.831Z,2.60
2023-04-26T20:29:34.922Z,2.37
2023-04-26T20:32:03.160Z,2.53
2023-04-26T20:34:31.315Z,2.60
2023-04-26T20:36:59.482Z,3.00
2023-04-26T20:39:28.286Z,3.07
2023-04-26T20:41:56.948Z,3.13
2023-04-26T20:44:26.669Z,3.30
2023-04-26T20:46:54.785Z,3.43
2023-04-26T20:49:23.100Z,3.00
2023-04-26T20:51:51.562Z,3.87
2023-04-26T20:54:19.702Z,3.90
2023-04-26T20:56:47.883Z,4.07
2023-04-26T20:59:16.001Z,4.20
2023-04-26T21:01:45.593Z,4.47
2023-04-26T21:04:13.994Z,4.43
2023-04-26T21:06:42.323Z,3.67
2023-04-26T21:09:11.236Z,4.00
2023-04-26T21:11:39.608Z,3.80
2023-04-26T21:14:09.021Z,3.83
2023-04-26T21:16:37.192Z,4.27
2023-04-26T21:19:07.014Z,3.97
2023-04-26T21:21:35.426Z,4.10
2023-04-26T21:24:03.956Z,3.70
2023-04-26T21:26:32.136Z,4.17
2023-04-26T21:29:00.703Z,4.37
2023-04-26T21:31:28.862Z,3.83
2023-04-26T21:33:57.023Z,4.70
2023-04-26T21:36:26.696Z,4.03
2023-04-26T21:38:54.873Z,4.07
2023-04-26T21:41:23.518Z,3.90
2023-04-26T21:43:52.821Z,3.57
2023-04-26T21:46:21.073Z,3.80
2023-04-26T21:48:49.459Z,3.80
2023-04-26T21:51:17.569Z,3.70
2023-04-26T21:53:47.077Z,4.03
2023-04-26T21:56:15.554Z,3.63
2023-04-26T21:58:43.822Z,3.70
2023-04-26T22:01:12.997Z,4.07
2023-04-26T22:03:41.500Z,3.63
2023-04-26T22:06:10.884Z,3.80
2023-04-26T22:08:39.522Z,3.73
2023-04-26T22:11:09.090Z,3.53
2023-04-26T22:13:37.279Z,4.20
2023-04-26T22:16:06.103Z,4.30
2023-04-26T22:18:35.366Z,4.30
2023-04-26T22:21:03.503Z,4.13
2023-04-26T22:23:32.044Z,3.93
2023-04-26T22:26:00.656Z,4.87
2023-04-26T22:28:30.170Z,3.67
2023-04-26T22:30:58.418Z,3.60
2023-04-26T22:33:26.937Z,3.70
2023-04-26T22:35:57.724Z,3.77
2023-04-26T22:38:27.131Z,4.07
2023-04-26T22:40:56.083Z,4.17
2023-04-26T22:43:24.282Z,3.50
2023-04-26T22:45:53.837Z,4.27
2023-04-26T22:48:22.082Z,3.90
2023-04-26T22:50:50.554Z,4.00
2023-04-26T22:53:18.731Z,3.80
2023-04-26T22:55:46.876Z,3.43
2023-04-26T22:58:17.090Z,3.70
2023-04-26T23:00:45.519Z,3.50
2023-04-26T23:03:15.242Z,3.70
2023-04-26T23:05:43.507Z,4.23
2023-04-26T23:08:11.885Z,3.80
2023-04-26T23:10:40.500Z,4.00
2023-04-26T23:13:09.002Z,4.30
2023-04-26T23:15:37.164Z,4.40
2023-04-26T23:18:05.517Z,3.87
2023-04-26T23:20:35.019Z,3.80
2023-04-26T23:23:03.203Z,3.70
2023-04-26T23:25:31.457Z,3.93
2023-04-26T23:27:59.676Z,4.10
2023-04-26T23:30:27.855Z,4.23
2023-04-26T23:32:56.093Z,4.60
2023-04-26T23:35:24.516Z,4.40
2023-04-26T23:37:54.146Z,4.13
2023-04-26T23:40:22.361Z,3.97
2023-04-26T23:42:50.636Z,4.50
2023-04-26T23:45:19.267Z,4.13
2023-04-26T23:47:47.527Z,4.33
2023-04-26T23:50:15.837Z,4.33
2023-04-26T23:52:44.020Z,4.03
2023-04-26T23:55:13.865Z,3.93
2023-04-26T23:57:42.041Z,4.40
